createdAt,value
2018-12-13T00:01:51.411Z,1.50
2018-12-13T00:04:19.799Z,1.50
2018-12-13T00:06:48.719Z,1.50
2018-12-13T00:09:17.084Z,1.60
2018-12-13T00:11:45.514Z,1.70
2018-12-13T00:14:14.170Z,1.80
2018-12-13T00:16:42.527Z,1.90
2018-12-13T00:19:10.885Z,2.00
2018-12-13T00:21:39.411Z,2.10
2018-12-13T00:24:07.771Z,2.20
2018-12-13T00:26:36.115Z,2.20
2018-12-13T00:29:04.607Z,2.20
2018-12-13T00:31:32.962Z,2.20
2018-12-13T00:34:01.323Z,2.20
2018-12-13T00:36:30.209Z,2.30
2018-12-13T00:38:58.543Z,2.30
2018-12-13T00:41:27.014Z,2.30
2018-12-13T00:43:55.843Z,2.30
2018-12-13T00:46:24.213Z,2.30
2018-12-13T00:48:52.559Z,2.30
2018-12-13T00:51:21.178Z,2.30
2018-12-13T00:53:49.497Z,2.30
2018-12-13T00:56:17.852Z,2.30
2018-12-13T00:58:46.238Z,2.20
2018-12-13T01:01:14.698Z,2.30
2018-12-13T01:03:43.493Z,2.20
2018-12-13T01:06:12.141Z,2.20
2018-12-13T01:08:40.611Z,2.20
2018-12-13T01:11:08.987Z,2.10
2018-12-13T01:13:37.746Z,2.10
2018-12-13T01:16:08.131Z,2.10
2018-12-13T01:18:36.555Z,2.10
2018-12-13T01:21:05.323Z,2.10
2018-12-13T01:23:33.956Z,2.10
2018-12-13T01:26:02.283Z,2.10
2018-12-13T01:28:30.703Z,2.00
2018-12-13T01:30:59.061Z,2.00
2018-12-13T01:33:27.506Z,2.00
2018-12-13T01:35:55.894Z,1.90
2018-12-13T01:38:24.261Z,2.00
2018-12-13T01:40:52.614Z,2.00
2018-12-13T01:43:21.386Z,1.90
2018-12-13T01:45:49.743Z,1.90
2018-12-13T01:48:18.095Z,1.90
2018-12-13T01:50:46.578Z,1.90
2018-12-13T01:53:14.923Z,1.90
2018-12-13T01:55:43.272Z,1.90
2018-12-13T01:58:12.236Z,1.90
2018-12-13T02:00:40.623Z,1.80
2018-12-13T02:03:08.986Z,1.80
2018-12-13T02:05:37.775Z,1.80
2018-12-13T02:08:06.111Z,1.80
2018-12-13T02:10:34.466Z,1.80
2018-12-13T02:13:03.219Z,1.80
2018-12-13T02:15:33.112Z,1.80
2018-12-13T02:18:01.512Z,1.70
2018-12-13T02:20:29.883Z,1.70
2018-12-13T02:22:58.314Z,1.70
2018-12-13T02:25:26.810Z,1.70
2018-12-13T02:27:55.327Z,1.70
2018-12-13T02:30:23.683Z,1.70
2018-12-13T02:32:52.062Z,1.80
2018-12-13T02:35:20.556Z,1.70
2018-12-13T02:37:48.985Z,1.70
2018-12-13T02:40:17.336Z,1.70
2018-12-13T02:42:46.034Z,1.80
2018-12-13T02:45:14.528Z,1.70
2018-12-13T02:47:42.882Z,1.70
2018-12-13T02:50:11.291Z,1.70
2018-12-13T02:52:39.654Z,1.70
2018-12-13T02:55:08.117Z,1.80
2018-12-13T02:57:36.488Z,1.80
2018-12-13T03:00:05.526Z,1.80
2018-12-13T03:02:33.978Z,1.70
2018-12-13T03:05:03.134Z,1.60
2018-12-13T03:07:31.890Z,1.60
2018-12-13T03:10:00.251Z,1.60
2018-12-13T03:12:29.167Z,1.50
2018-12-13T03:14:57.520Z,1.50
2018-12-13T03:17:26.003Z,1.30
2018-12-13T03:19:54.902Z,1.20
2018-12-13T03:22:23.295Z,1.20
2018-12-13T03:24:51.718Z,1.20
2018-12-13T03:27:20.667Z,1.10
2018-12-13T03:29:49.155Z,1.00
2018-12-13T03:32:17.525Z,0.90
2018-12-13T03:34:46.707Z,0.90
2018-12-13T03:37:20.615Z,0.90
2018-12-13T03:39:45.509Z,0.90
2018-12-13T03:42:14.615Z,0.80
2018-12-13T03:44:42.960Z,0.80
2018-12-13T03:47:11.319Z,0.80
2018-12-13T03:49:39.778Z,0.80
2018-12-13T03:52:08.236Z,0.90
2018-12-13T03:54:36.739Z,0.90
2018-12-13T03:57:05.746Z,0.90
2018-12-13T03:59:34.111Z,0.90
2018-12-13T04:02:02.779Z,0.80
2018-12-13T04:04:31.219Z,0.80
2018-12-13T04:06:59.588Z,0.80
2018-12-13T04:09:28.264Z,0.70
2018-12-13T04:11:57.315Z,0.70
2018-12-13T04:14:25.708Z,0.70
2018-12-13T04:16:54.121Z,0.70
2018-12-13T04:19:22.858Z,0.70
2018-12-13T04:21:51.234Z,0.70
2018-12-13T04:24:19.566Z,0.70
2018-12-13T04:26:47.950Z,0.70
2018-12-13T04:29:16.330Z,0.70
2018-12-13T04:31:44.695Z,0.70
2018-12-13T04:34:13.722Z,0.70
2018-12-13T04:36:42.070Z,0.60
2018-12-13T04:39:10.423Z,0.60
2018-12-13T04:41:39.083Z,0.60
2018-12-13T04:44:07.448Z,0.60
2018-12-13T04:46:35.804Z,0.60
2018-12-13T04:49:04.543Z,0.60
2018-12-13T04:51:32.919Z,0.60
2018-12-13T04:54:01.288Z,0.60
2018-12-13T04:56:29.711Z,0.60
2018-12-13T04:58:58.074Z,0.50
2018-12-13T05:01:26.453Z,0.60
2018-12-13T05:03:55.226Z,0.60
2018-12-13T05:06:23.603Z,0.60
2018-12-13T05:08:51.971Z,0.70
2018-12-13T05:11:20.459Z,0.70
2018-12-13T05:13:48.823Z,0.70
2018-12-13T05:16:17.178Z,0.70
2018-12-13T05:18:45.910Z,0.70
2018-12-13T05:21:14.282Z,0.90
2018-12-13T05:23:42.660Z,0.90
2018-12-13T05:26:11.447Z,1.00
2018-12-13T05:28:39.807Z,1.00
2018-12-13T05:31:09.518Z,1.10
2018-12-13T05:33:38.529Z,1.10
2018-12-13T05:36:06.877Z,1.10
2018-12-13T05:38:35.235Z,1.10
2018-12-13T05:41:03.998Z,1.10
2018-12-13T05:43:32.363Z,1.10
2018-12-13T05:46:00.906Z,1.10
2018-12-13T05:48:29.493Z,1.10
2018-12-13T05:50:58.744Z,1.10
2018-12-13T05:53:27.726Z,1.10
2018-12-13T05:55:56.467Z,1.10
2018-12-13T05:58:24.824Z,1.10
2018-12-13T06:00:53.298Z,1.10
2018-12-13T06:03:21.994Z,1.00
2018-12-13T06:05:50.350Z,1.10
2018-12-13T06:08:18.707Z,1.10
2018-12-13T06:10:47.075Z,1.00
2018-12-13T06:13:16.063Z,1.00
2018-12-13T06:15:44.417Z,1.00
2018-12-13T06:18:12.831Z,1.00
2018-12-13T06:20:41.270Z,1.00
2018-12-13T06:23:09.622Z,1.00
2018-12-13T06:25:38.015Z,1.00
2018-12-13T06:28:06.380Z,1.00
2018-12-13T06:30:34.743Z,1.00
2018-12-13T06:33:03.134Z,0.90
2018-12-13T06:35:31.522Z,0.90
2018-12-13T06:38:01.421Z,0.90
2018-12-13T06:40:30.219Z,1.00
2018-12-13T06:42:58.575Z,0.90
2018-12-13T06:45:27.284Z,0.90
2018-12-13T06:47:56.016Z,0.90
2018-12-13T06:50:24.396Z,1.00
2018-12-13T06:52:52.729Z,0.90
2018-12-13T06:55:21.450Z,0.90
2018-12-13T06:57:51.451Z,0.90
2018-12-13T07:00:19.817Z,0.90
2018-12-13T07:02:49.251Z,0.90
2018-12-13T07:05:19.962Z,0.90
2018-12-13T07:07:48.479Z,0.90
2018-12-13T07:10:18.925Z,0.90
2018-12-13T07:12:47.247Z,0.90
2018-12-13T07:15:15.708Z,0.80
2018-12-13T07:17:44.474Z,0.80
2018-12-13T07:20:12.926Z,0.70
2018-12-13T07:22:41.356Z,0.60
2018-12-13T07:25:09.847Z,0.50
2018-12-13T07:27:44.054Z,0.40
2018-12-13T07:30:12.921Z,0.40
2018-12-13T07:32:41.254Z,0.40
2018-12-13T07:35:09.598Z,0.30
2018-12-13T07:37:38.607Z,0.30
2018-12-13T07:40:08.307Z,0.30
2018-12-13T07:42:56.070Z,0.30
2018-12-13T07:45:24.415Z,0.20
2018-12-13T07:47:52.758Z,0.20
2018-12-13T07:50:21.464Z,0.10
2018-12-13T07:52:50.043Z,0.10
2018-12-13T07:55:18.400Z,0.10
2018-12-13T07:57:46.847Z,0.10
2018-12-13T08:00:15.202Z,0.10
2018-12-13T08:02:43.554Z,0.10
2018-12-13T08:05:12.306Z,0.20
2018-12-13T08:07:40.655Z,0.20
2018-12-13T08:10:09.023Z,0.20
2018-12-13T08:12:37.730Z,0.20
2018-12-13T08:15:06.402Z,0.20
2018-12-13T08:17:35.014Z,0.30
2018-12-13T08:20:04.091Z,0.30
2018-12-13T08:22:32.468Z,0.30
2018-12-13T08:25:00.819Z,0.30
2018-12-13T08:27:32.813Z,0.50
2018-12-13T08:30:01.179Z,0.50
2018-12-13T08:32:29.762Z,0.50
2018-12-13T08:34:58.931Z,0.50
2018-12-13T08:37:46.399Z,0.60
2018-12-13T08:40:15.031Z,0.60
2018-12-13T08:42:43.411Z,0.70
2018-12-13T08:45:11.799Z,0.90
2018-12-13T08:47:40.518Z,0.90
2018-12-13T08:50:09.190Z,0.90
2018-12-13T08:52:37.556Z,1.00
2018-12-13T08:55:06.598Z,1.10
2018-12-13T08:57:34.958Z,1.10
2018-12-13T09:00:05.311Z,1.20
2018-12-13T09:02:34.455Z,1.20
2018-12-13T09:05:04.345Z,1.20
2018-12-13T09:07:33.191Z,1.30
2018-12-13T09:10:01.826Z,1.50
2018-12-13T09:12:30.194Z,1.50
2018-12-13T09:14:58.558Z,1.50
2018-12-13T09:17:26.994Z,1.60
2018-12-13T09:19:55.866Z,1.80
2018-12-13T09:22:24.559Z,1.90
2018-12-13T09:24:53.749Z,1.90
2018-12-13T09:27:28.115Z,1.90
2018-12-13T09:29:56.824Z,2.00
2018-12-13T09:32:26.121Z,2.00
2018-12-13T09:34:54.711Z,2.00
2018-12-13T09:37:23.088Z,2.10
2018-12-13T09:39:51.564Z,2.10
2018-12-13T09:42:20.527Z,2.10
2018-12-13T09:44:50.403Z,2.20
2018-12-13T09:47:18.754Z,2.30
2018-12-13T09:49:47.094Z,2.30
2018-12-13T09:52:16.066Z,2.30
2018-12-13T09:54:44.459Z,2.40
2018-12-13T09:57:12.810Z,2.40
2018-12-13T09:59:41.466Z,2.40
2018-12-13T10:02:09.815Z,2.50
2018-12-13T10:04:38.198Z,2.50
2018-12-13T10:07:07.423Z,2.60
2018-12-13T10:09:35.779Z,2.60
2018-12-13T10:12:04.243Z,2.70
2018-12-13T10:14:32.623Z,2.80
2018-12-13T10:17:01.027Z,2.80
2018-12-13T10:19:29.467Z,2.80
2018-12-13T10:21:58.515Z,2.90
2018-12-13T10:24:26.821Z,3.00
2018-12-13T10:26:59.289Z,3.00
2018-12-13T10:29:27.614Z,3.10
2018-12-13T10:31:56.005Z,3.10
2018-12-13T10:34:24.438Z,3.10
2018-12-13T10:36:54.023Z,3.20
2018-12-13T10:39:22.464Z,3.30
2018-12-13T10:41:51.106Z,3.30
2018-12-13T10:44:23.785Z,3.30
2018-12-13T10:46:52.267Z,3.40
2018-12-13T10:49:20.639Z,3.40
2018-12-13T10:51:49.134Z,3.50
2018-12-13T10:54:18.639Z,3.60
2018-12-13T10:56:47.033Z,3.60
2018-12-13T10:59:15.379Z,3.80
2018-12-13T11:01:48.343Z,3.80
2018-12-13T11:04:16.716Z,3.70
2018-12-13T11:06:45.130Z,3.80
2018-12-13T11:09:15.422Z,3.80
2018-12-13T11:11:43.894Z,3.80
2018-12-13T11:14:12.285Z,3.90
2018-12-13T11:16:41.036Z,3.90
2018-12-13T11:19:09.516Z,3.90
2018-12-13T11:21:38.123Z,4.00
2018-12-13T11:24:07.563Z,4.10
2018-12-13T11:26:39.346Z,4.10
2018-12-13T11:29:23.322Z,4.10
2018-12-13T11:31:51.750Z,4.10
2018-12-13T11:34:20.254Z,4.10
2018-12-13T11:36:48.898Z,4.20
2018-12-13T11:39:17.266Z,4.00
2018-12-13T11:41:45.623Z,4.00
2018-12-13T11:44:15.034Z,4.10
2018-12-13T11:46:43.635Z,4.00
2018-12-13T11:49:13.475Z,4.00
2018-12-13T11:51:43.087Z,4.00
2018-12-13T11:54:33.970Z,4.10
2018-12-13T11:57:02.654Z,4.10
2018-12-13T11:59:31.094Z,4.00
2018-12-13T12:01:59.442Z,3.90
2018-12-13T12:04:28.210Z,4.00
2018-12-13T12:06:56.631Z,4.00
2018-12-13T12:09:25.052Z,3.90
2018-12-13T12:11:53.421Z,4.00
2018-12-13T12:14:21.970Z,3.90
2018-12-13T12:16:50.322Z,4.00
2018-12-13T12:19:19.107Z,3.90
2018-12-13T12:21:47.510Z,3.90
2018-12-13T12:24:15.987Z,4.00
2018-12-13T12:26:48.483Z,4.00
2018-12-13T12:29:19.141Z,4.00
2018-12-13T12:31:47.502Z,4.00
2018-12-13T12:34:16.157Z,4.00
2018-12-13T12:36:50.009Z,4.10
2018-12-13T12:39:19.183Z,4.00
2018-12-13T12:41:47.536Z,3.90
2018-12-13T12:44:15.893Z,3.90
2018-12-13T12:46:44.775Z,4.10
2018-12-13T12:49:13.110Z,4.00
2018-12-13T12:51:41.455Z,4.10
2018-12-13T12:54:09.866Z,4.20
2018-12-13T12:56:38.235Z,4.10
2018-12-13T12:59:06.588Z,4.10
2018-12-13T13:01:35.101Z,4.10
2018-12-13T13:04:03.442Z,4.00
2018-12-13T13:06:31.796Z,4.00
2018-12-13T13:09:00.488Z,4.00
2018-12-13T13:11:28.822Z,4.00
2018-12-13T13:13:57.187Z,3.90
2018-12-13T13:16:25.558Z,3.90
2018-12-13T13:18:53.910Z,3.80
2018-12-13T13:21:24.533Z,3.80
2018-12-13T13:23:53.231Z,3.80
2018-12-13T13:26:22.002Z,3.70
2018-12-13T13:28:50.350Z,3.70
2018-12-13T13:31:19.036Z,3.70
2018-12-13T13:33:47.382Z,3.60
2018-12-13T13:36:15.810Z,3.60
2018-12-13T13:38:46.362Z,3.70
2018-12-13T13:41:14.697Z,3.70
2018-12-13T13:43:43.040Z,3.60
2018-12-13T13:46:11.494Z,3.60
2018-12-13T13:48:39.815Z,3.70
2018-12-13T13:51:08.167Z,3.60
2018-12-13T13:53:36.846Z,3.60
2018-12-13T13:56:05.187Z,3.50
2018-12-13T13:58:33.551Z,3.50
2018-12-13T14:01:01.963Z,3.40
2018-12-13T14:03:30.291Z,3.40
2018-12-13T14:05:58.718Z,3.40
2018-12-13T14:08:27.338Z,3.40
2018-12-13T14:10:55.839Z,3.40
2018-12-13T14:13:24.283Z,3.30
2018-12-13T14:15:52.642Z,3.30
2018-12-13T14:18:20.986Z,3.30
2018-12-13T14:20:49.355Z,3.30
2018-12-13T14:23:25.847Z,3.30
2018-12-13T14:25:54.194Z,3.20
2018-12-13T14:28:22.590Z,3.30
2018-12-13T14:30:51.266Z,3.30
2018-12-13T14:33:19.755Z,3.20
2018-12-13T14:35:52.030Z,3.10
2018-12-13T14:38:20.379Z,3.10
2018-12-13T14:40:48.741Z,3.10
2018-12-13T14:43:17.090Z,3.00
2018-12-13T14:45:45.515Z,3.10
2018-12-13T14:48:13.839Z,3.00
2018-12-13T14:50:42.538Z,3.00
2018-12-13T14:53:10.891Z,3.10
2018-12-13T14:55:39.236Z,3.10
2018-12-13T14:58:08.127Z,3.00
2018-12-13T15:00:37.131Z,3.10
2018-12-13T15:03:06.964Z,3.00
2018-12-13T15:05:35.335Z,3.00
2018-12-13T15:08:03.681Z,2.90
2018-12-13T15:10:32.035Z,2.90
2018-12-13T15:13:00.894Z,2.90
2018-12-13T15:15:29.405Z,2.80
2018-12-13T15:17:57.886Z,2.80
2018-12-13T15:20:26.310Z,2.70
2018-12-13T15:22:54.654Z,2.70
2018-12-13T15:25:23.018Z,2.60
2018-12-13T15:27:51.654Z,2.60
2018-12-13T15:30:20.450Z,2.50
2018-12-13T15:32:48.770Z,2.40
2018-12-13T15:35:17.611Z,2.40
2018-12-13T15:37:49.044Z,2.40
2018-12-13T15:40:17.943Z,2.40
2018-12-13T15:42:46.299Z,2.40
2018-12-13T15:45:15.037Z,2.40
2018-12-13T15:47:43.483Z,2.40
2018-12-13T15:50:12.259Z,2.40
2018-12-13T15:52:40.618Z,2.40
2018-12-13T15:55:09.207Z,2.30
2018-12-13T15:57:38.546Z,2.30
2018-12-13T16:00:08.293Z,2.30
2018-12-13T16:02:37.098Z,2.20
2018-12-13T16:05:05.690Z,2.20
2018-12-13T16:07:34.043Z,2.20
2018-12-13T16:10:03.985Z,2.20
2018-12-13T16:12:32.686Z,2.20
2018-12-13T16:15:01.035Z,2.20
2018-12-13T16:17:30.662Z,2.20
2018-12-13T16:19:59.165Z,2.10
2018-12-13T16:22:27.527Z,2.10
2018-12-13T16:24:59.698Z,2.10
2018-12-13T16:27:28.362Z,2.00
2018-12-13T16:29:56.708Z,2.10
2018-12-13T16:32:25.673Z,2.10
2018-12-13T16:34:57.059Z,2.10
2018-12-13T16:37:25.828Z,2.10
2018-12-13T16:39:54.166Z,2.10
2018-12-13T16:42:22.966Z,2.10
2018-12-13T16:44:54.151Z,2.10
2018-12-13T16:47:22.495Z,2.00
2018-12-13T16:49:51.075Z,2.00
2018-12-13T16:52:21.011Z,2.00
2018-12-13T16:54:49.407Z,2.00
2018-12-13T16:57:17.987Z,1.90
2018-12-13T16:59:48.033Z,2.00
2018-12-13T17:02:16.758Z,1.90
2018-12-13T17:04:45.406Z,1.90
2018-12-13T17:07:14.407Z,1.90
2018-12-13T17:09:43.006Z,1.80
2018-12-13T17:12:11.850Z,1.90
2018-12-13T17:14:40.224Z,1.80
2018-12-13T17:17:09.174Z,1.70
2018-12-13T17:19:37.917Z,1.80
2018-12-13T17:22:06.911Z,1.80
2018-12-13T17:24:35.535Z,1.80
2018-12-13T17:27:04.108Z,1.70
2018-12-13T17:29:33.009Z,1.70
2018-12-13T17:32:01.370Z,1.60
2018-12-13T17:34:30.012Z,1.60
2018-12-13T17:36:58.459Z,1.60
2018-12-13T17:39:26.801Z,1.50
2018-12-13T17:41:55.155Z,1.50
2018-12-13T17:44:23.996Z,1.50
2018-12-13T17:46:52.347Z,1.50
2018-12-13T17:49:20.702Z,1.50
2018-12-13T17:51:49.423Z,1.50
2018-12-13T17:54:17.783Z,1.60
2018-12-13T17:56:49.442Z,1.60
2018-12-13T17:59:18.475Z,1.50
2018-12-13T18:01:46.806Z,1.50
2018-12-13T18:04:15.168Z,1.50
2018-12-13T18:06:43.894Z,1.50
2018-12-13T18:09:12.426Z,1.60
2018-12-13T18:11:40.798Z,1.50
2018-12-13T18:14:09.203Z,1.50
2018-12-13T18:16:43.419Z,1.60
2018-12-13T18:19:09.778Z,1.60
2018-12-13T18:21:39.380Z,1.60
2018-12-13T18:24:07.786Z,1.70
2018-12-13T18:26:36.454Z,1.70
2018-12-13T18:29:06.887Z,1.70
2018-12-13T18:31:35.430Z,1.70
2018-12-13T18:34:10.487Z,1.80
2018-12-13T18:36:39.598Z,1.80
2018-12-13T18:39:08.299Z,1.90
2018-12-13T18:41:37.002Z,1.90
2018-12-13T18:44:05.354Z,1.90
2018-12-13T18:46:33.707Z,1.90
2018-12-13T18:49:02.072Z,1.90
2018-12-13T18:51:30.407Z,1.90
2018-12-13T18:53:58.751Z,1.90
2018-12-13T18:56:27.342Z,1.80
2018-12-13T18:58:55.675Z,1.90
2018-12-13T19:01:24.347Z,1.80
2018-12-13T19:03:52.899Z,1.80
2018-12-13T19:06:21.387Z,1.80
2018-12-13T19:08:50.082Z,1.70
2018-12-13T19:11:18.579Z,1.70
2018-12-13T19:13:47.711Z,1.70
2018-12-13T19:16:16.038Z,1.70
2018-12-13T19:18:45.694Z,1.70
2018-12-13T19:21:14.042Z,1.80
2018-12-13T19:23:43.415Z,1.70
2018-12-13T19:26:12.426Z,1.80
2018-12-13T19:28:40.935Z,1.80
2018-12-13T19:31:09.307Z,1.80
2018-12-13T19:33:38.710Z,1.80
2018-12-13T19:36:07.204Z,1.80
2018-12-13T19:38:35.619Z,1.80
2018-12-13T19:41:04.087Z,1.80
2018-12-13T19:43:32.514Z,1.80
2018-12-13T19:46:00.924Z,1.80
2018-12-13T19:48:29.322Z,1.80
2018-12-13T19:50:57.847Z,1.80
2018-12-13T19:53:26.506Z,1.80
2018-12-13T19:55:55.699Z,1.80
2018-12-13T19:58:24.046Z,1.80
2018-12-13T20:00:54.859Z,1.80
2018-12-13T20:03:24.724Z,1.80
2018-12-13T20:05:54.499Z,1.90
2018-12-13T20:08:22.994Z,1.90
2018-12-13T20:10:54.819Z,1.90
2018-12-13T20:13:22.739Z,1.90
2018-12-13T20:15:51.122Z,1.80
2018-12-13T20:18:19.680Z,1.90
2018-12-13T20:20:48.370Z,1.90
2018-12-13T20:23:16.711Z,1.90
2018-12-13T20:25:45.559Z,1.90
2018-12-13T20:28:14.451Z,1.90
2018-12-13T20:30:43.670Z,1.90
2018-12-13T20:33:13.394Z,1.90
2018-12-13T20:35:43.095Z,1.90
2018-12-13T20:38:13.059Z,1.90
2018-12-13T20:40:43.523Z,1.90
2018-12-13T20:43:12.839Z,1.90
2018-12-13T20:45:41.639Z,1.90
2018-12-13T20:48:10.399Z,1.90
2018-12-13T20:50:39.250Z,1.90
2018-12-13T20:53:08.206Z,1.90
2018-12-13T20:55:36.787Z,1.90
2018-12-13T21:00:47.168Z,2.00
2018-12-13T21:03:15.663Z,2.00
2018-12-13T21:05:44.075Z,2.10
2018-12-13T21:08:12.442Z,2.00
2018-12-13T21:10:40.980Z,2.10
2018-12-13T21:13:09.326Z,2.00
2018-12-13T21:15:38.003Z,2.00
2018-12-13T21:18:06.474Z,1.90
2018-12-13T21:20:35.326Z,1.90
2018-12-13T21:23:04.807Z,1.80
2018-12-13T21:25:33.282Z,1.80
2018-12-13T21:28:01.643Z,1.70
2018-12-13T21:30:30.082Z,1.70
2018-12-13T21:32:58.502Z,1.70
2018-12-13T21:35:26.884Z,1.70
2018-12-13T21:37:55.735Z,1.70
2018-12-13T21:40:24.095Z,1.60
2018-12-13T21:42:52.519Z,1.60
2018-12-13T21:45:21.011Z,1.60
2018-12-13T21:47:49.367Z,1.60
2018-12-13T21:50:17.850Z,1.60
2018-12-13T21:52:46.263Z,1.60
2018-12-13T21:55:14.729Z,1.50
2018-12-13T21:57:43.130Z,1.50
2018-12-13T22:00:12.567Z,1.50
2018-12-13T22:02:40.942Z,1.60
2018-12-13T22:05:09.325Z,1.50
2018-12-13T22:07:38.809Z,1.50
2018-12-13T22:10:07.679Z,1.50
2018-12-13T22:12:36.322Z,1.50
2018-12-13T22:15:05.197Z,1.50
2018-12-13T22:17:33.562Z,1.40
2018-12-13T22:20:01.917Z,1.50
2018-12-13T22:22:30.760Z,1.40
2018-12-13T22:24:59.130Z,1.40
2018-12-13T22:27:27.539Z,1.40
2018-12-13T22:29:56.371Z,1.40
2018-12-13T22:32:24.719Z,1.40
2018-12-13T22:34:53.284Z,1.40
2018-12-13T22:37:21.975Z,1.40
2018-12-13T22:39:50.382Z,1.40
2018-12-13T22:42:19.538Z,1.40
2018-12-13T22:44:48.518Z,1.40
2018-12-13T22:47:16.907Z,1.30
2018-12-13T22:49:45.256Z,1.40
2018-12-13T22:52:13.675Z,1.40
2018-12-13T22:54:42.043Z,1.50
2018-12-13T22:57:10.415Z,1.40
2018-12-13T22:59:39.243Z,1.50
2018-12-13T23:02:07.623Z,1.50
2018-12-13T23:04:35.987Z,1.60
2018-12-13T23:07:04.641Z,1.50
2018-12-13T23:09:33.102Z,1.60
2018-12-13T23:12:01.456Z,1.60
2018-12-13T23:14:32.535Z,1.60
2018-12-13T23:17:00.899Z,1.60
2018-12-13T23:19:29.255Z,1.60
2018-12-13T23:21:58.000Z,1.60
2018-12-13T23:24:26.383Z,1.50
2018-12-13T23:26:54.746Z,1.30
2018-12-13T23:29:23.227Z,1.30
2018-12-13T23:31:51.608Z,1.30
2018-12-13T23:34:19.950Z,1.20
2018-12-13T23:36:48.892Z,1.20
2018-12-13T23:39:17.399Z,1.10
2018-12-13T23:41:45.750Z,1.10
2018-12-13T23:44:14.197Z,1.10
2018-12-13T23:46:42.627Z,1.10
2018-12-13T23:49:10.983Z,1.10
2018-12-13T23:51:39.778Z,1.00
2018-12-13T23:54:08.140Z,1.00
2018-12-13T23:56:36.522Z,1.00
2018-12-13T23:59:05.330Z,1.00
